Time;durP1;ratioP1;P1;durP2;ratioP2;P2;SDS_P1;SDS_P2;PMS_P1;PMS_P2;Temp;Humidity;BMP_temperature;BMP_pressure;BME280_temperature;BME280_humidity;BME280_pressure;Samples;Min_cycle;Max_cycle;Signal;HPM_P1;HPM_P2
2023/06/15 00:00:33;;;;;;;4.43;2.55;;;;;;;;;;5064600;28;20020;-80
2023/06/15 00:02:58;;;;;;;3.85;2.67;;;18.90;72.90;;;;;;5062428;28;20077;-81
2023/06/15 00:05:25;;;;;;;5.47;2.88;;;;;;;;;;5067301;28;20036;-84
2023/06/15 00:07:51;;;;;;;3.55;2.47;;;;;;;;;;5076872;28;20020;-82
2023/06/15 00:10:18;;;;;;;4.45;2.72;;;;;;;;;;5069212;28;20119;-82
2023/06/15 00:12:44;;;;;;;3.67;2.55;;;;;;;;;;5071177;28;20028;-81
2023/06/15 00:15:10;;;;;;;5.40;2.65;;;18.70;73.80;;;;;;5068862;28;20036;-82
2023/06/15 00:17:37;;;;;;;3.53;2.60;;;;;;;;;;5070411;28;20029;-82
2023/06/15 00:20:08;;;;;;;4.15;2.78;;;18.60;73.80;;;;;;5075417;28;20044;-79
2023/06/15 00:22:41;;;;;;;6.53;2.70;;;;;;;;;;5071519;28;20486;-80
2023/06/15 00:25:10;;;;;;;5.47;2.95;;;18.60;74.20;;;;;;5076952;28;20043;-79
2023/06/15 00:27:36;;;;;;;4.00;2.70;;;;;;;;;;5068102;28;20505;-79
2023/06/15 00:30:04;;;;;;;5.22;3.40;;;18.50;74.20;;;;;;5073229;28;20375;-80
2023/06/15 00:32:30;;;;;;;4.28;3.10;;;;;;;;;;5076724;28;20025;-84
2023/06/15 00:34:56;;;;;;;4.70;3.03;;;;;;;;;;5066307;28;20028;-82
2023/06/15 00:37:22;;;;;;;3.45;2.50;;;;;;;;;;5067417;28;20057;-82
2023/06/15 00:39:48;;;;;;;6.10;3.00;;;;;;;;;;5068265;28;20029;-81
2023/06/15 00:42:14;;;;;;;5.00;2.80;;;;;;;;;;5064915;28;20033;-85
2023/06/15 00:44:40;;;;;;;3.97;3.10;;;;;;;;;;5073019;28;20024;-80
2023/06/15 00:47:06;;;;;;;4.25;2.67;;;;;;;;;;5085348;28;20039;-82
2023/06/15 00:49:33;;;;;;;5.03;2.95;;;18.30;75.30;;;;;;5069102;28;20478;-83
2023/06/15 00:51:59;;;;;;;5.00;2.90;;;;;;;;;;5080925;28;20044;-81
2023/06/15 00:54:25;;;;;;;4.18;2.88;;;18.20;75.30;;;;;;5076387;28;20107;-81
2023/06/15 00:56:52;;;;;;;4.07;2.70;;;;;;;;;;5071918;28;20116;-78
2023/06/15 00:59:19;;;;;;;5.20;2.40;;;18.30;75.50;;;;;;5078288;28;20024;-80
2023/06/15 01:01:47;;;;;;;5.00;2.55;;;;;;;;;;5073938;28;20024;-78
2023/06/15 01:04:13;;;;;;;4.10;3.00;;;;;;;;;;5066277;28;20482;-79
2023/06/15 01:06:42;;;;;;;5.85;2.75;;;18.20;75.50;;;;;;5074541;28;20032;-78
2023/06/15 01:09:11;;;;;;;4.68;2.90;;;18.10;75.60;;;;;;5061754;28;20027;-81
2023/06/15 01:11:38;;;;;;;3.85;2.90;;;;;;;;;;5061699;28;20031;-80
2023/06/15 01:14:04;;;;;;;4.35;2.88;;;18.10;75.90;;;;;;5073614;28;20043;-80
2023/06/15 01:16:40;;;;;;;4.57;2.83;;;18.00;75.90;;;;;;5073645;28;20025;-78
2023/06/15 01:19:29;;;;;;;5.05;2.58;;;18.10;75.90;;;;;;5070217;28;20141;-82
2023/06/15 01:21:59;;;;;;;5.28;2.88;;;18.10;76.00;;;;;;5071016;28;20029;-85
2023/06/15 01:24:32;;;;;;;4.60;2.90;;;18.10;76.10;;;;;;5069241;28;20040;-83
2023/06/15 01:26:59;;;;;;;6.43;3.15;;;;;;;;;;5077183;28;20039;-81
2023/06/15 01:29:26;;;;;;;4.90;2.65;;;17.90;76.30;;;;;;5069382;28;20021;-78
2023/06/15 01:31:52;;;;;;;4.55;2.67;;;;;;;;;;5070539;28;20032;-81
2023/06/15 01:34:18;;;;;;;5.53;2.90;;;;;;;;;;5064497;28;20017;-86
2023/06/15 01:36:44;;;;;;;4.28;2.55;;;;;;;;;;5074478;28;20390;-85
2023/06/15 01:39:10;;;;;;;4.53;2.60;;;;;;;;;;5072280;28;20055;-85
2023/06/15 01:41:38;;;;;;;4.13;2.53;;;17.80;76.80;;;;;;5070439;28;20032;-81
2023/06/15 01:44:05;;;;;;;4.10;2.72;;;17.80;76.80;;;;;;5071245;28;20163;-81
2023/06/15 01:46:32;;;;;;;4.88;2.70;;;17.80;76.70;;;;;;5069908;28;20582;-80
2023/06/15 01:48:58;;;;;;;5.22;2.97;;;;;;;;;;5069394;28;20032;-80
2023/06/15 01:51:28;;;;;;;3.22;2.60;;;17.80;77.00;;;;;;5067370;28;20108;-79
2023/06/15 01:53:53;;;;;;;4.63;2.50;;;17.70;77.10;;;;;;5048239;28;20100;-80
2023/06/15 01:56:19;;;;;;;5.03;2.75;;;;;;;;;;5065724;28;20052;-78
2023/06/15 01:58:45;;;;;;;10.52;2.70;;;17.70;77.10;;;;;;5068615;28;20043;-80
2023/06/15 02:01:11;;;;;;;5.78;2.75;;;;;;;;;;5067505;28;20021;-84
2023/06/15 02:03:37;;;;;;;4.70;2.72;;;;;;;;;;5075879;28;20092;-79
2023/06/15 02:06:03;;;;;;;5.07;2.70;;;;;;;;;;5069983;28;20479;-80
2023/06/15 02:08:28;;;;;;;5.00;3.42;;;17.70;77.60;;;;;;5069673;28;20078;-84
2023/06/15 02:10:54;;;;;;;3.83;2.85;;;;;;;;;;5076375;28;20778;-84
2023/06/15 02:13:20;;;;;;;4.10;2.90;;;17.60;77.60;;;;;;5069112;28;20047;-82
2023/06/15 02:15:46;;;;;;;5.35;2.90;;;17.60;77.70;;;;;;5069490;28;20017;-80
2023/06/15 02:18:14;;;;;;;3.65;2.60;;;;;;;;;;5072760;28;20442;-82
2023/06/15 02:20:41;;;;;;;4.88;2.95;;;18.10;78.40;;;;;;5067438;28;20025;-81
2023/06/15 02:23:07;;;;;;;6.13;2.90;;;;;;;;;;5069901;28;20021;-82
2023/06/15 02:25:32;;;;;;;4.20;2.90;;;17.50;78.30;;;;;;5063526;28;20029;-80
2023/06/15 02:27:58;;;;;;;4.28;2.90;;;;;;;;;;5064258;28;20020;-81
2023/06/15 02:30:26;;;;;;;4.65;2.70;;;17.40;78.40;;;;;;5062730;28;20529;-80
2023/06/15 02:32:55;;;;;;;5.70;2.97;;;17.30;78.90;;;;;;5070746;28;20017;-79
2023/06/15 02:35:21;;;;;;;4.38;2.80;;;17.80;79.50;;;;;;5070476;28;20039;-82
2023/06/15 02:37:47;;;;;;;5.30;3.20;;;;;;;;;;5065387;28;20028;-84
2023/06/15 02:40:13;;;;;;;3.80;2.63;;;17.30;78.90;;;;;;5071380;28;20029;-80
2023/06/15 02:42:39;;;;;;;3.95;2.78;;;17.20;78.90;;;;;;5062885;28;20035;-79
2023/06/15 02:45:09;;;;;;;5.00;3.00;;;17.30;79.50;;;;;;5066539;28;20040;-81
2023/06/15 02:47:35;;;;;;;7.53;2.95;;;17.30;79.50;;;;;;5054202;28;20043;-83
2023/06/15 02:50:02;;;;;;;3.72;2.97;;;18.70;80.20;;;;;;5073193;28;20054;-84
2023/06/15 02:52:30;;;;;;;3.78;2.80;;;17.50;79.70;;;;;;5072904;28;20024;-82
2023/06/15 02:54:57;;;;;;;5.80;2.70;;;17.10;79.40;;;;;;5065827;28;20409;-81
2023/06/15 02:57:23;;;;;;;4.18;2.90;;;17.90;80.30;;;;;;5075327;28;20025;-81
2023/06/15 02:59:49;;;;;;;4.95;2.90;;;;;;;;;;5072322;28;20029;-81
2023/06/15 03:02:15;;;;;;;3.67;2.90;;;;;;;;;;5064152;28;20513;-83
2023/06/15 03:04:47;;;;;;;3.70;2.88;;;;;;;;;;5068074;28;20032;-84
2023/06/15 03:07:16;;;;;;;4.28;2.85;;;;;;;;;;5067885;28;20087;-83
2023/06/15 03:09:44;;;;;;;4.13;2.95;;;16.90;80.30;;;;;;5067559;28;20652;-80
2023/06/15 03:12:10;;;;;;;4.35;3.10;;;17.70;81.20;;;;;;5067388;28;20040;-80
2023/06/15 03:14:39;;;;;;;4.00;2.75;;;;;;;;;;5072713;28;20036;-83
2023/06/15 03:17:10;;;;;;;3.95;2.75;;;;;;;;;;5065076;28;20223;-80
2023/06/15 03:19:36;;;;;;;4.55;2.88;;;;;;;;;;5071785;28;20096;-84
2023/06/15 03:22:03;;;;;;;4.10;2.72;;;16.80;80.60;;;;;;5068931;28;20108;-82
2023/06/15 03:24:30;;;;;;;5.97;3.15;;;;;;;;;;5070746;28;20025;-81
2023/06/15 03:26:57;;;;;;;4.75;3.03;;;16.70;81.00;;;;;;5068248;28;20040;-83
2023/06/15 03:29:26;;;;;;;5.35;2.70;;;;;;;;;;5070164;28;20025;-78
2023/06/15 03:31:53;;;;;;;4.50;2.47;;;16.50;81.40;;;;;;5067122;28;20032;-83
2023/06/15 03:34:19;;;;;;;4.50;2.70;;;;;;;;;;5069118;28;20043;-83
2023/06/15 03:36:45;;;;;;;4.88;3.42;;;;;;;;;;5067349;28;20082;-81
2023/06/15 03:39:12;;;;;;;3.08;2.30;;;;;;;;;;5061481;28;20123;-82
2023/06/15 03:41:38;;;;;;;5.63;2.95;;;;;;;;;;5061428;28;20024;-83
2023/06/15 03:44:04;;;;;;;3.72;2.65;;;16.50;81.90;;;;;;5066268;28;20028;-82
2023/06/15 03:46:29;;;;;;;7.05;2.83;;;16.50;82.60;;;;;;5068713;28;20045;-82
2023/06/15 03:48:55;;;;;;;6.53;2.92;;;;;;;;;;5058456;28;20029;-84
2023/06/15 03:51:22;;;;;;;4.65;2.90;;;;;;;;;;5064874;28;20070;-82
2023/06/15 03:53:47;;;;;;;4.15;3.00;;;;;;;;;;5068973;28;20408;-85
2023/06/15 03:56:13;;;;;;;5.38;2.70;;;16.40;82.50;;;;;;5069222;28;20076;-81
2023/06/15 03:58:39;;;;;;;7.22;2.90;;;;;;;;;;5067836;28;20047;-83
2023/06/15 04:01:05;;;;;;;5.47;2.85;;;16.40;82.60;;;;;;5071201;28;20381;-83
2023/06/15 04:03:34;;;;;;;5.47;3.10;;;16.40;83.00;;;;;;5074185;28;20051;-85
2023/06/15 04:06:02;;;;;;;5.00;3.03;;;16.30;82.90;;;;;;5071988;28;20101;-83
2023/06/15 04:08:28;;;;;;;4.03;2.67;;;16.40;83.20;;;;;;5069967;28;20024;-79
2023/06/15 04:10:56;;;;;;;3.78;2.78;;;16.30;83.70;;;;;;5059046;28;20021;-81
2023/06/15 04:13:23;;;;;;;4.63;2.92;;;16.30;84.10;;;;;;5075103;28;20044;-78
2023/06/15 04:15:50;;;;;;;4.20;2.67;;;;;;;;;;5073468;28;20024;-82
2023/06/15 04:18:16;;;;;;;4.03;2.70;;;;;;;;;;5069899;28;20060;-79
2023/06/15 04:20:43;;;;;;;5.43;2.50;;;;;;;;;;5072902;28;20029;-83
2023/06/15 04:23:10;;;;;;;4.15;2.80;;;;;;;;;;5066667;28;20032;-84
2023/06/15 04:25:37;;;;;;;5.15;2.70;;;;;;;;;;5069538;28;20024;-80
2023/06/15 04:28:05;;;;;;;6.40;3.15;;;;;;;;;;5071572;28;20025;-80
2023/06/15 04:30:32;;;;;;;6.72;2.83;;;;;;;;;;5065802;28;20021;-83
2023/06/15 04:33:00;;;;;;;5.88;3.10;;;;;;;;;;5075647;28;20019;-80
2023/06/15 04:35:31;;;;;;;5.32;2.85;;;;;;;;;;5071148;28;20025;-84
2023/06/15 04:37:59;;;;;;;4.57;2.88;;;16.50;84.20;;;;;;5074144;28;20062;-81
2023/06/15 04:40:25;;;;;;;3.60;2.67;;;16.40;84.10;;;;;;5084836;28;20135;-85
2023/06/15 04:42:53;;;;;;;4.57;2.65;;;;;;;;;;5069442;28;20137;-83
2023/06/15 04:45:19;;;;;;;8.95;3.20;;;;;;;;;;5067547;28;20031;-80
2023/06/15 04:47:45;;;;;;;4.65;3.15;;;;;;;;;;5064180;28;20089;-80
2023/06/15 04:50:13;;;;;;;6.13;3.00;;;;;;;;;;5066962;28;20064;-79
2023/06/15 04:52:40;;;;;;;4.13;2.70;;;17.00;83.10;;;;;;5069963;28;20017;-83
2023/06/15 04:55:06;;;;;;;3.60;2.78;;;;;;;;;;5067759;28;20028;-84
2023/06/15 04:57:32;;;;;;;4.80;2.90;;;;;;;;;;5070912;28;20036;-81
2023/06/15 04:59:58;;;;;;;6.18;3.03;;;;;;;;;;5067977;28;20950;-86
2023/06/15 05:02:24;;;;;;;8.00;3.22;;;;;;;;;;5070524;28;20028;-82
2023/06/15 05:04:50;;;;;;;5.78;3.45;;;;;;;;;;5069644;28;20032;-81
2023/06/15 05:07:16;;;;;;;6.22;2.80;;;;;;;;;;5072024;28;20040;-81
2023/06/15 05:09:42;;;;;;;6.00;3.28;;;;;;;;;;5071905;28;20033;-84
2023/06/15 05:12:08;;;;;;;5.35;3.20;;;;;;;;;;5063071;28;20029;-81
2023/06/15 05:14:34;;;;;;;6.47;3.10;;;;;;;;;;5047977;28;20033;-83
2023/06/15 05:17:03;;;;;;;5.10;2.78;;;;;;;;;;5067832;28;20130;-82
2023/06/15 05:19:30;;;;;;;5.88;2.55;;;;;;;;;;5069021;28;20028;-82
2023/06/15 05:21:59;;;;;;;5.72;2.80;;;19.30;78.30;;;;;;5070594;28;20033;-79
2023/06/15 05:24:25;;;;;;;4.63;2.45;;;;;;;;;;5071344;28;20029;-85
2023/06/15 05:26:51;;;;;;;3.70;2.80;;;21.00;72.90;;;;;;5070618;28;20028;-80
2023/06/15 05:29:16;;;;;;;4.05;2.65;;;21.20;72.60;;;;;;5068468;28;20490;-82
2023/06/15 05:31:43;;;;;;;3.17;2.42;;;;;;;;;;5069969;28;20407;-82
2023/06/15 05:34:08;;;;;;;3.13;2.53;;;;;;;;;;5068980;28;20525;-81
2023/06/15 05:36:34;;;;;;;7.88;2.60;;;22.00;70.40;;;;;;5066348;28;20033;-85
2023/06/15 05:39:01;;;;;;;5.22;2.47;;;;;;;;;;5064508;28;20158;-81
2023/06/15 05:41:26;;;;;;;6.68;3.35;;;22.20;69.70;;;;;;5071102;28;20032;-82
2023/06/15 05:43:52;;;;;;;5.47;3.00;;;;;;;;;;5063260;28;20029;-81
2023/06/15 05:46:18;;;;;;;4.60;2.53;;;;;;;;;;5064839;28;20095;-80
2023/06/15 05:48:44;;;;;;;3.78;2.78;;;;;;;;;;5062955;28;20016;-83
2023/06/15 05:51:10;;;;;;;231.35;18.45;;;;;;;;;;5066677;28;20033;-79
2023/06/15 05:53:36;;;;;;;27.10;4.43;;;23.00;68.00;;;;;;5065430;28;20460;-81
2023/06/15 05:56:03;;;;;;;7.10;2.95;;;;;;;;;;5050542;28;20066;-80
2023/06/15 05:58:29;;;;;;;3.83;2.53;;;22.70;68.80;;;;;;5057432;28;20084;-82
2023/06/15 06:00:55;;;;;;;8.90;2.55;;;;;;;;;;5063672;28;20436;-84
2023/06/15 06:03:21;;;;;;;9.93;3.10;;;;;;;;;;5064971;28;20599;-79
2023/06/15 06:05:47;;;;;;;5.40;2.72;;;;;;;;;;5062470;28;20054;-82
2023/06/15 06:08:12;;;;;;;6.78;2.45;;;21.40;72.50;;;;;;5060724;28;20028;-81
2023/06/15 06:10:39;;;;;;;15.77;3.85;;;21.40;73.60;;;;;;5056112;28;20059;-82
2023/06/15 06:13:05;;;;;;;5.10;2.75;;;;;;;;;;5066032;28;20021;-82
2023/06/15 06:15:31;;;;;;;4.13;2.53;;;21.10;73.50;;;;;;5061043;28;20032;-80
2023/06/15 06:17:56;;;;;;;5.30;2.90;;;20.90;73.90;;;;;;5061274;28;20101;-82
2023/06/15 06:20:24;;;;;;;7.55;3.00;;;21.00;73.80;;;;;;5059516;28;20032;-84
2023/06/15 06:22:50;;;;;;;5.18;2.70;;;;;;;;;;5058287;28;20074;-81
2023/06/15 06:25:16;;;;;;;6.63;2.70;;;;;;;;;;5064477;28;20075;-79
2023/06/15 06:27:42;;;;;;;5.22;2.90;;;;;;;;;;5057562;28;20567;-82
2023/06/15 06:30:08;;;;;;;5.32;2.83;;;;;;;;;;5057877;28;20028;-82
2023/06/15 06:32:34;;;;;;;5.82;2.90;;;;;;;;;;5061901;28;20047;-82
2023/06/15 06:35:00;;;;;;;4.25;2.70;;;21.00;74.40;;;;;;5065658;28;20040;-80
2023/06/15 06:37:26;;;;;;;4.78;2.97;;;;;;;;;;5058850;28;20029;-80
2023/06/15 06:39:52;;;;;;;6.93;2.95;;;21.00;74.50;;;;;;5072230;28;20048;-84
2023/06/15 06:42:17;;;;;;;4.43;2.75;;;21.00;74.60;;;;;;5066739;28;20048;-83
2023/06/15 06:44:43;;;;;;;4.55;2.80;;;21.00;74.90;;;;;;5060281;28;20035;-83
2023/06/15 06:47:09;;;;;;;7.95;3.03;;;;;;;;;;5054556;28;20051;-88
2023/06/15 06:49:35;;;;;;;5.90;3.03;;;;;;;;;;5068714;28;20024;-83
2023/06/15 06:52:01;;;;;;;5.63;2.78;;;21.30;74.20;;;;;;5062333;28;20052;-85
2023/06/15 06:54:26;;;;;;;9.57;3.00;;;21.70;73.50;;;;;;5058933;28;20035;-86
2023/06/15 06:56:52;;;;;;;4.97;2.75;;;21.60;73.30;;;;;;5063462;28;20052;-85
2023/06/15 06:59:18;;;;;;;4.55;2.92;;;;;;;;;;5071071;28;20047;-86
2023/06/15 07:01:44;;;;;;;6.88;2.58;;;;;;;;;;5046684;28;20411;-84
2023/06/15 07:04:10;;;;;;;8.27;2.83;;;;;;;;;;5065751;28;20111;-87
2023/06/15 07:06:42;;;;;;;3.78;2.85;;;;;;;;;;5071085;28;20032;-87
2023/06/15 07:09:08;;;;;;;5.75;2.85;;;;;;;;;;5072511;28;20474;-85
2023/06/15 07:11:34;;;;;;;6.07;2.70;;;;;;;;;;5070089;28;20051;-86
2023/06/15 07:14:03;;;;;;;6.20;2.90;;;;;;;;;;5068117;28;20025;-86
2023/06/15 07:16:29;;;;;;;5.90;3.30;;;;;;;;;;5072800;28;20032;-84
2023/06/15 07:18:55;;;;;;;3.38;2.58;;;;;;;;;;5070359;28;20625;-84
2023/06/15 07:21:21;;;;;;;3.75;2.53;;;;;;;;;;5067631;28;20383;-85
2023/06/15 07:23:47;;;;;;;4.43;2.60;;;;;;;;;;5059237;28;20040;-86
2023/06/15 07:26:13;;;;;;;7.50;3.13;;;;;;;;;;5061137;28;20503;-85
2023/06/15 07:28:39;;;;;;;5.75;2.88;;;;;;;;;;5060995;28;22036;-85
2023/06/15 07:31:05;;;;;;;5.00;2.90;;;;;;;;;;5069701;28;21117;-86
2023/06/15 07:33:31;;;;;;;3.42;2.45;;;;;;;;;;5058602;28;20040;-85
2023/06/15 07:35:57;;;;;;;4.45;2.40;;;;;;;;;;5069251;28;20040;-86
2023/06/15 07:38:23;;;;;;;5.97;2.88;;;;;;;;;;5068245;28;20033;-87
2023/06/15 07:40:49;;;;;;;3.83;2.67;;;;;;;;;;5070653;28;20020;-84
2023/06/15 07:43:16;;;;;;;7.63;3.10;;;;;;;;;;5068311;28;20025;-87
2023/06/15 07:45:44;;;;;;;6.53;2.90;;;;;;;;;;5081784;28;20025;-88
2023/06/15 07:48:10;;;;;;;6.03;2.92;;;;;;;;;;5084756;28;20029;-88
2023/06/15 07:50:36;;;;;;;5.75;3.10;;;;;;;;;;5083946;28;20040;-86
2023/06/15 07:53:02;;;;;;;3.92;2.88;;;;;;;;;;5087429;28;20029;-88
2023/06/15 07:55:28;;;;;;;3.75;2.45;;;;;;;;;;5084724;28;20035;-88
2023/06/15 07:57:54;;;;;;;5.35;3.10;;;;;;;;;;5083522;28;20060;-86
2023/06/15 08:00:21;;;;;;;7.60;2.80;;;22.80;71.40;;;;;;5080291;28;20014;-87
2023/06/15 08:02:48;;;;;;;5.78;2.60;;;;;;;;;;5082168;28;20055;-87
2023/06/15 08:05:15;;;;;;;5.90;3.05;;;;;;;;;;5081268;28;20081;-87
2023/06/15 08:07:41;;;;;;;7.68;3.33;;;;;;;;;;5080828;28;20035;-89
2023/06/15 08:10:07;;;;;;;3.17;2.60;;;;;;;;;;5080347;28;20021;-89
2023/06/15 08:12:33;;;;;;;7.07;2.75;;;;;;;;;;5079748;28;20008;-86
2023/06/15 08:14:59;;;;;;;4.22;2.67;;;;;;;;;;5078351;28;20054;-86
2023/06/15 08:17:25;;;;;;;6.45;2.83;;;23.20;70.80;;;;;;5075534;28;20032;-88
2023/06/15 08:19:52;;;;;;;3.38;2.63;;;;;;;;;;5074622;28;20040;-88
2023/06/15 08:22:18;;;;;;;4.15;2.70;;;;;;;;;;5068977;28;20044;-88
2023/06/15 08:24:45;;;;;;;7.57;2.90;;;;;;;;;;5067928;28;20094;-86
2023/06/15 08:27:11;;;;;;;3.95;2.60;;;;;;;;;;5060898;28;20024;-86
2023/06/15 08:29:38;;;;;;;5.15;2.88;;;;;;;;;;5068375;28;20092;-86
2023/06/15 08:32:06;;;;;;;5.53;2.58;;;23.60;69.20;;;;;;5068289;28;20029;-88
2023/06/15 08:34:32;;;;;;;5.18;2.97;;;;;;;;;;5069923;28;20027;-86
2023/06/15 08:36:58;;;;;;;3.67;2.70;;;;;;;;;;5070443;28;20027;-86
2023/06/15 08:39:24;;;;;;;6.35;2.70;;;;;;;;;;5075163;28;20034;-87
2023/06/15 08:41:55;;;;;;;4.30;3.20;;;23.90;68.80;;;;;;5069666;28;20029;-89
2023/06/15 08:44:21;;;;;;;5.15;2.67;;;;;;;;;;5071032;28;20033;-87
2023/06/15 08:46:48;;;;;;;4.35;2.50;;;;;;;;;;5064370;28;20471;-86
2023/06/15 08:49:14;;;;;;;5.85;2.97;;;;;;;;;;5078365;28;20033;-87
2023/06/15 08:51:41;;;;;;;7.35;3.28;;;24.20;67.00;;;;;;5077119;28;20025;-89
2023/06/15 08:54:09;;;;;;;6.10;3.42;;;24.20;66.30;;;;;;5077309;28;20120;-86
2023/06/15 08:56:38;;;;;;;7.78;2.78;;;;;;;;;;5073836;28;20056;-86
2023/06/15 08:59:04;;;;;;;5.43;2.78;;;;;;;;;;5078857;28;20028;-86
2023/06/15 09:01:32;;;;;;;7.10;3.22;;;24.20;65.50;;;;;;5075388;28;20097;-86
2023/06/15 09:03:59;;;;;;;6.25;2.85;;;;;;;;;;5072280;28;20032;-86
2023/06/15 09:06:25;;;;;;;5.28;2.70;;;;;;;;;;5077107;28;20569;-85
2023/06/15 09:08:52;;;;;;;3.83;2.58;;;;;;;;;;5079068;28;20032;-87
2023/06/15 09:11:18;;;;;;;5.20;2.88;;;;;;;;;;5073784;28;20032;-86
2023/06/15 09:13:45;;;;;;;4.05;2.97;;;;;;;;;;5071300;28;20029;-88
2023/06/15 09:16:11;;;;;;;3.08;2.53;;;;;;;;;;5076056;28;20111;-87
2023/06/15 09:18:46;;;;;;;4.68;2.85;;;24.50;62.70;;;;;;5078725;28;20054;-87
2023/06/15 09:21:14;;;;;;;5.38;3.10;;;24.70;63.40;;;;;;5079910;28;20028;-87
2023/06/15 09:23:41;;;;;;;4.78;2.85;;;;;;;;;;5078969;28;20037;-86
2023/06/15 09:26:08;;;;;;;3.42;2.65;;;;;;;;;;5082860;28;20077;-87
2023/06/15 09:28:34;;;;;;;6.65;2.95;;;;;;;;;;5073284;28;20052;-87
2023/06/15 09:31:00;;;;;;;4.88;2.53;;;;;;;;;;5075722;28;20021;-87
2023/06/15 09:33:29;;;;;;;4.35;2.78;;;25.30;61.80;;;;;;5069543;28;20012;-86
2023/06/15 09:36:01;;;;;;;4.55;3.08;;;25.30;61.70;;;;;;5064540;28;20059;-86
2023/06/15 09:38:29;;;;;;;5.97;3.03;;;25.30;61.50;;;;;;5081130;28;20024;-86
2023/06/15 09:40:55;;;;;;;7.38;2.92;;;;;;;;;;5068157;28;20032;-88
2023/06/15 09:43:22;;;;;;;18.65;3.90;;;;;;;;;;5080149;28;20028;-88
2023/06/15 09:45:54;;;;;;;4.72;2.70;;;;;;;;;;5071521;28;20494;-85
2023/06/15 09:48:21;;;;;;;6.47;2.83;;;;;;;;;;5070878;28;20039;-88
2023/06/15 09:50:51;;;;;;;5.28;2.63;;;25.50;59.20;;;;;;5078047;28;20068;-88
2023/06/15 09:53:20;;;;;;;3.95;2.60;;;25.40;59.70;;;;;;5075511;28;20028;-86
2023/06/15 09:55:47;;;;;;;5.28;2.95;;;;;;;;;;5076827;28;20032;-85
2023/06/15 09:58:13;;;;;;;4.95;2.90;;;;;;;;;;5078336;28;20037;-86
2023/06/15 10:00:40;;;;;;;4.20;2.50;;;;;;;;;;5073541;28;20127;-85
2023/06/15 10:03:09;;;;;;;4.22;2.70;;;25.80;60.50;;;;;;5074233;28;20029;-87
2023/06/15 10:05:44;;;;;;;4.30;2.65;;;25.90;59.30;;;;;;5079560;28;20025;-86
2023/06/15 10:08:13;;;;;;;4.68;2.47;;;26.10;58.30;;;;;;5067484;28;20036;-87
2023/06/15 10:10:42;;;;;;;6.57;2.78;;;26.20;59.10;;;;;;5076735;28;20025;-85
2023/06/15 10:13:14;;;;;;;3.95;2.75;;;26.20;58.80;;;;;;5072599;28;20029;-86
2023/06/15 10:15:45;;;;;;;4.95;2.67;;;26.20;59.50;;;;;;5086091;28;20035;-87
2023/06/15 10:18:12;;;;;;;6.03;2.67;;;;;;;;;;5074555;28;20039;-85
2023/06/15 10:20:38;;;;;;;8.48;2.97;;;;;;;;;;5074337;28;20048;-86
2023/06/15 10:23:13;;;;;;;3.85;2.78;;;26.30;59.20;;;;;;5077573;28;20037;-87
2023/06/15 10:25:42;;;;;;;5.30;2.42;;;26.30;59.20;;;;;;5068149;28;20040;-87
2023/06/15 10:28:12;;;;;;;3.13;2.57;;;;;;;;;;5078537;28;20028;-88
2023/06/15 10:30:57;;;;;;;3.95;2.50;;;26.50;58.60;;;;;;5083169;28;20025;-87
2023/06/15 10:33:28;;;;;;;5.72;2.60;;;;;;;;;;5080735;28;20035;-87
2023/06/15 10:36:11;;;;;;;5.85;3.20;;;26.60;58.10;;;;;;5081058;28;20111;-87
2023/06/15 10:38:38;;;;;;;3.90;2.75;;;;;;;;;;5086100;28;20040;-85
2023/06/15 10:41:05;;;;;;;4.65;2.42;;;26.70;57.60;;;;;;5077701;28;20035;-88
2023/06/15 10:43:31;;;;;;;6.20;3.15;;;;;;;;;;5083276;28;20021;-85
2023/06/15 10:45:57;;;;;;;3.40;2.47;;;;;;;;;;5084473;28;20017;-87
2023/06/15 10:48:28;;;;;;;4.68;2.63;;;27.00;57.40;;;;;;5082722;28;20024;-85
2023/06/15 10:51:07;;;;;;;7.78;4.03;;;27.00;57.70;;;;;;5078840;28;20024;-87
2023/06/15 10:53:40;;;;;;;6.13;3.13;;;27.10;57.70;;;;;;5081792;28;20029;-87
2023/06/15 10:56:17;;;;;;;7.45;3.00;;;;;;;;;;5076643;28;20047;-86
2023/06/15 10:59:07;;;;;;;4.97;2.92;;;26.90;57.10;;;;;;5060783;28;20086;-87
2023/06/15 11:01:34;;;;;;;4.18;2.83;;;;;;;;;;5083503;28;20005;-87
2023/06/15 11:04:30;;;;;;;4.25;2.80;;;26.80;57.30;;;;;;5079303;28;20049;-85
2023/06/15 11:06:57;;;;;;;6.95;2.80;;;;;;;;;;5079436;28;20025;-87
2023/06/15 11:09:25;;;;;;;4.50;2.83;;;;;;;;;;5077474;28;20036;-87
2023/06/15 11:11:51;;;;;;;4.63;2.78;;;;;;;;;;5072607;28;20035;-87
2023/06/15 11:14:20;;;;;;;8.32;3.10;;;;;;;;;;5076227;28;20075;-87
2023/06/15 11:16:46;;;;;;;3.80;2.88;;;;;;;;;;5078770;28;20062;-87
2023/06/15 11:19:12;;;;;;;7.22;3.22;;;;;;;;;;5075945;28;20502;-86
2023/06/15 11:21:47;;;;;;;6.65;3.10;;;;;;;;;;5075532;28;20029;-86
2023/06/15 11:24:15;;;;;;;5.53;2.88;;;;;;;;;;5073902;28;20390;-88
2023/06/15 11:26:42;;;;;;;4.18;2.60;;;;;;;;;;5055907;28;20924;-86
2023/06/15 11:29:09;;;;;;;6.20;2.80;;;27.40;56.30;;;;;;5077985;28;20339;-87
2023/06/15 11:31:35;;;;;;;5.28;2.78;;;;;;;;;;5075922;28;20057;-88
2023/06/15 11:34:02;;;;;;;4.30;3.22;;;;;;;;;;5073142;28;20024;-88
2023/06/15 11:36:29;;;;;;;5.47;2.75;;;;;;;;;;5075777;28;20436;-88
2023/06/15 11:38:55;;;;;;;5.40;2.70;;;;;;;;;;5072904;28;20462;-87
2023/06/15 11:41:21;;;;;;;6.22;2.67;;;;;;;;;;5072110;28;20058;-86
2023/06/15 11:43:49;;;;;;;3.72;2.75;;;27.60;55.00;;;;;;5074551;28;20147;-85
2023/06/15 11:46:22;;;;;;;4.65;2.65;;;27.50;55.40;;;;;;5076324;28;20020;-86
2023/06/15 11:48:48;;;;;;;3.60;2.70;;;;;;;;;;5082353;28;20035;-86
2023/06/15 11:51:16;;;;;;;4.63;2.70;;;27.20;55.70;;;;;;5074623;28;20028;-84
2023/06/15 11:53:43;;;;;;;5.88;3.35;;;;;;;;;;5071745;28;20271;-85
2023/06/15 11:56:13;;;;;;;8.60;2.90;;;27.20;56.10;;;;;;5077093;28;20036;-85
2023/06/15 11:58:44;;;;;;;5.95;2.67;;;27.30;55.90;;;;;;5074297;28;20068;-86
2023/06/15 12:01:14;;;;;;;7.47;3.10;;;;;;;;;;5079261;28;20036;-86
2023/06/15 12:03:47;;;;;;;6.20;2.83;;;27.40;55.50;;;;;;5075654;28;20106;-87
2023/06/15 12:06:18;;;;;;;5.60;2.83;;;27.30;56.00;;;;;;5091918;28;20029;-86
2023/06/15 12:08:52;;;;;;;5.07;2.88;;;27.10;56.10;;;;;;5069415;28;20021;-85
2023/06/15 12:11:22;;;;;;;4.03;2.60;;;;;;;;;;5083974;28;20111;-87
2023/06/15 12:13:47;;;;;;;;;;;26.70;56.80;;;;;;5088182;28;20016;-84
2023/06/15 12:16:13;;;;;;;4.50;3.00;;;;;;;;;;5084941;28;20352;-87
2023/06/15 12:18:39;;;;;;;4.05;2.50;;;;;;;;;;5082814;28;20028;-84
2023/06/15 12:21:05;;;;;;;4.10;2.80;;;;;;;;;;5081210;28;20067;-87
2023/06/15 12:23:33;;;;;;;5.47;4.25;;;26.90;56.30;;;;;;5081726;28;20025;-86
2023/06/15 12:26:03;;;;;;;6.53;2.78;;;26.90;56.30;;;;;;5074932;28;20025;-84
2023/06/15 12:28:32;;;;;;;4.20;2.75;;;27.60;55.30;;;;;;5088576;28;20887;-87
2023/06/15 12:31:03;;;;;;;7.80;2.67;;;27.90;54.60;;;;;;5076458;28;20145;-85
2023/06/15 12:33:38;;;;;;;5.82;2.72;;;28.00;54.00;;;;;;5062535;28;20274;-85
2023/06/15 12:36:09;;;;;;;3.83;2.80;;;;;;;;;;5068560;28;20092;-84
2023/06/15 12:38:35;;;;;;;4.30;2.53;;;;;;;;;;5080111;28;20036;-85
2023/06/15 12:41:04;;;;;;;4.90;2.97;;;;;;;;;;5072229;28;20035;-84
2023/06/15 12:43:30;;;;;;;5.22;2.67;;;;;;;;;;5076211;28;20048;-86
2023/06/15 12:45:56;;;;;;;4.13;2.67;;;;;;;;;;5078957;28;20036;-86
2023/06/15 12:48:22;;;;;;;4.55;2.80;;;;;;;;;;5072299;28;20367;-84
2023/06/15 12:50:50;;;;;;;6.18;2.67;;;;;;;;;;5071940;28;20580;-87
2023/06/15 12:53:16;;;;;;;3.22;2.60;;;;;;;;;;5074540;28;20021;-85
2023/06/15 12:55:42;;;;;;;5.65;3.10;;;;;;;;;;5076955;28;20025;-86
2023/06/15 12:58:08;;;;;;;3.10;2.45;;;;;;;;;;5081826;28;20028;-87
2023/06/15 13:00:35;;;;;;;4.15;2.30;;;;;;;;;;5077688;28;20165;-86
2023/06/15 13:03:01;;;;;;;4.63;2.80;;;;;;;;;;5081196;28;20074;-84
2023/06/15 13:05:28;;;;;;;3.13;2.50;;;;;;;;;;5081260;28;20036;-85
2023/06/15 13:07:54;;;;;;;4.20;2.50;;;;;;;;;;5067417;28;20024;-82
2023/06/15 13:10:20;;;;;;;3.03;2.17;;;;;;;;;;5068187;28;20240;-84
2023/06/15 13:12:47;;;;;;;4.35;2.30;;;;;;;;;;5071453;28;20021;-86
2023/06/15 13:15:13;;;;;;;6.85;2.33;;;;;;;;;;5078550;28;20035;-87
2023/06/15 13:17:40;;;;;;;4.95;2.50;;;;;;;;;;5075565;28;20051;-86
2023/06/15 13:20:08;;;;;;;4.97;2.20;;;27.40;54.30;;;;;;5075172;28;20037;-85
2023/06/15 13:22:35;;;;;;;5.30;2.28;;;;;;;;;;5077800;28;20101;-84
2023/06/15 13:25:03;;;;;;;4.47;2.53;;;;;;;;;;5071313;28;20119;-86
2023/06/15 13:27:29;;;;;;;3.85;2.60;;;;;;;;;;5079004;28;20025;-84
2023/06/15 13:29:55;;;;;;;3.60;2.30;;;;;;;;;;5075853;28;20028;-83
2023/06/15 13:32:21;;;;;;;4.55;2.20;;;;;;;;;;5070959;28;20039;-86
2023/06/15 13:34:47;;;;;;;6.00;2.40;;;;;;;;;;5077310;28;20029;-88
2023/06/15 13:37:16;;;;;;;3.83;2.35;;;;;;;;;;5077460;28;20368;-84
2023/06/15 13:39:42;;;;;;;5.20;2.10;;;;;;;;;;5072798;28;20071;-84
2023/06/15 13:42:08;;;;;;;3.75;2.45;;;;;;;;;;5077517;28;20122;-84
2023/06/15 13:44:34;;;;;;;3.35;2.60;;;;;;;;;;5074061;28;20088;-84
2023/06/15 13:47:00;;;;;;;3.65;2.20;;;;;;;;;;5088889;28;20413;-86
2023/06/15 13:49:27;;;;;;;4.05;2.45;;;;;;;;;;5089692;28;20040;-85
2023/06/15 13:51:56;;;;;;;3.03;2.17;;;;;;;;;;5076521;28;20028;-88
2023/06/15 13:54:22;;;;;;;3.15;2.38;;;;;;;;;;5074231;28;20284;-88
2023/06/15 13:56:48;;;;;;;5.40;2.40;;;;;;;;;;5064501;28;20118;-86
2023/06/15 13:59:14;;;;;;;3.58;2.50;;;;;;;;;;5073448;28;20029;-85